AFR026 KLAX-NTAA
Flight info
| Callsign | AFR026 |
|---|---|
| Flight time | N/A |
| Altitude | 38000 |
| Route | SUMMR2 FICKY DCT HILCO DCT 25N126W 20N128W 15N130W 10N132W 0330N13555W/N0481F400 00N138W 05S141W 10S144W 15S147W DCT ASOKI ASOKI4T |
| Aircraft | A359/H-SDE2E3GHIJ3J4J5LM1ORWXY/LB1D1 |
Departure
| Time | 2026-04-21 22:50 |
|---|---|
| Airport | Los Angeles International Airport (KLAX) |
Arrival
| Time | N/A |
|---|---|
| Airport | Fa'a'ā International Airport (NTAA) |
| Time | Latitude | Longitude | Altitude | Speed | Heading |
|---|---|---|---|---|---|
| 2026-04-21 22:45 | 33.94525 | -118.41226 | 128 ft | 2 kts | 72° |
| 2026-04-21 22:45 | 33.94517 | -118.41244 | 132 ft | 2 kts | 45° |
| 2026-04-21 22:45 | 33.94504 | -118.41255 | 130 ft | 2 kts | 15° |
| 2026-04-21 22:46 | 33.94502 | -118.41256 | 131 ft | 0 kts | 12° |
| 2026-04-21 22:46 | 33.94501 | -118.41256 | 131 ft | 0 kts | 12° |
| 2026-04-21 22:46 | 33.94504 | -118.41257 | 130 ft | 2 kts | 360° |
| 2026-04-21 22:46 | 33.94553 | -118.41264 | 126 ft | 15 kts | 352° |
| 2026-04-21 22:47 | 33.94700 | -118.41287 | 127 ft | 24 kts | 352° |
| 2026-04-21 22:47 | 33.94801 | -118.41201 | 124 ft | 19 kts | 75° |
| 2026-04-21 22:47 | 33.94821 | -118.41025 | 131 ft | 25 kts | 83° |
| 2026-04-21 22:47 | 33.94845 | -118.40789 | 132 ft | 32 kts | 84° |
| 2026-04-21 22:48 | 33.94873 | -118.40521 | 129 ft | 33 kts | 83° |
| 2026-04-21 22:48 | 33.94933 | -118.40311 | 128 ft | 25 kts | 34° |
| 2026-04-21 22:48 | 33.94996 | -118.40345 | 128 ft | 11 kts | 279° |
| 2026-04-21 22:48 | 33.94995 | -118.40407 | 132 ft | 0 kts | 266° |
| 2026-04-21 22:49 | 33.94993 | -118.40434 | 132 ft | 19 kts | 263° |
| 2026-04-21 22:49 | 33.94948 | -118.40868 | 124 ft | 83 kts | 263° |
| 2026-04-21 22:49 | 33.94859 | -118.41739 | 132 ft | 135 kts | 263° |
| 2026-04-21 22:50 | 33.94739 | -118.43033 | 286 ft | 167 kts | 261° |
| 2026-04-21 22:50 | 33.94616 | -118.44377 | 1167 ft | 161 kts | 259° |
| 2026-04-21 22:50 | 33.94445 | -118.45775 | 1802 ft | 174 kts | 258° |
| 2026-04-21 22:50 | 33.94276 | -118.47289 | 1988 ft | 192 kts | 263° |
| 2026-04-21 22:51 | 33.94212 | -118.48949 | 2184 ft | 210 kts | 267° |
| 2026-04-21 22:51 | 33.94179 | -118.50780 | 2462 ft | 228 kts | 268° |
| 2026-04-21 22:51 | 33.94099 | -118.52757 | 2726 ft | 244 kts | 264° |